createdAt,value
2022-12-06T00:01:48.584Z,5.10
2022-12-06T00:04:18.359Z,5.08
2022-12-06T00:06:52.894Z,5.07
2022-12-06T00:09:24.859Z,5.02
2022-12-06T00:11:54.330Z,4.98
2022-12-06T00:14:23.897Z,4.95
2022-12-06T00:16:53.157Z,4.93
2022-12-06T00:19:24.891Z,4.90
2022-12-06T00:24:36.944Z,4.84
2022-12-06T00:27:05.798Z,4.83
2022-12-06T00:29:34.227Z,4.81
2022-12-06T00:32:02.877Z,4.79
2022-12-06T00:34:31.771Z,4.79
2022-12-06T00:37:00.498Z,4.79
2022-12-06T00:39:29.284Z,4.79
2022-12-06T00:41:58.210Z,4.79
2022-12-06T00:44:27.218Z,4.79
2022-12-06T00:46:55.966Z,4.79
2022-12-06T00:49:24.361Z,4.78
2022-12-06T00:51:53.215Z,4.78
2022-12-06T00:54:21.567Z,4.78
2022-12-06T00:56:49.765Z,4.78
2022-12-06T00:59:18.768Z,4.80
2022-12-06T01:01:47.306Z,4.82
2022-12-06T01:04:15.925Z,4.81
2022-12-06T01:06:44.596Z,4.78
2022-12-06T01:09:14.017Z,4.77
2022-12-06T01:11:42.802Z,4.77
2022-12-06T01:14:11.453Z,4.77
2022-12-06T01:16:40.195Z,4.75
2022-12-06T01:19:09.645Z,4.76
2022-12-06T01:21:38.403Z,4.74
2022-12-06T01:24:07.419Z,4.74
2022-12-06T01:26:37.511Z,4.73
2022-12-06T01:29:06.832Z,4.72
2022-12-06T01:31:38.803Z,4.72
2022-12-06T01:34:11.063Z,4.72
2022-12-06T01:36:39.450Z,4.68
2022-12-06T01:39:11.415Z,4.66
2022-12-06T01:41:40.924Z,4.62
2022-12-06T01:44:43.788Z,4.61
2022-12-06T01:47:35.403Z,4.60
2022-12-06T01:50:11.851Z,4.57
2022-12-06T01:52:48.493Z,4.54
2022-12-06T01:55:18.261Z,4.53
2022-12-06T01:57:47.490Z,4.53
2022-12-06T02:00:16.529Z,4.52
2022-12-06T02:02:45.810Z,4.51
2022-12-06T02:05:16.945Z,4.50
2022-12-06T02:07:46.768Z,4.47
2022-12-06T02:10:15.442Z,4.44
2022-12-06T02:12:44.713Z,4.40
2022-12-06T02:15:13.810Z,4.38
2022-12-06T02:17:58.864Z,4.36
2022-12-06T02:20:38.230Z,4.33
2022-12-06T02:23:35.236Z,4.32
2022-12-06T02:26:12.818Z,4.33
2022-12-06T02:29:00.920Z,4.33
2022-12-06T02:31:41.353Z,4.32
2022-12-06T02:34:25.051Z,4.33
2022-12-06T02:37:05.458Z,4.33
2022-12-06T02:39:34.715Z,4.33
2022-12-06T02:42:12.935Z,4.32
2022-12-06T02:44:57.768Z,4.33
2022-12-06T02:47:36.406Z,4.33
2022-12-06T02:50:14.986Z,4.34
2022-12-06T02:52:46.472Z,4.34
2022-12-06T02:55:16.712Z,4.34
2022-12-06T02:57:48.765Z,4.35
2022-12-06T03:00:44.363Z,4.37
2022-12-06T03:03:34.798Z,4.40
2022-12-06T03:06:03.539Z,4.40
2022-12-06T03:08:56.293Z,4.40
2022-12-06T03:11:29.320Z,4.38
2022-12-06T03:14:02.275Z,4.37
2022-12-06T03:16:48.930Z,4.38
2022-12-06T03:19:28.224Z,4.40
2022-12-06T03:22:03.672Z,4.40
2022-12-06T03:24:36.298Z,4.39
2022-12-06T03:27:12.082Z,4.38
2022-12-06T03:29:47.062Z,4.36
2022-12-06T03:32:19.219Z,4.34
2022-12-06T03:34:52.205Z,4.33
2022-12-06T03:37:25.260Z,4.32
2022-12-06T03:40:19.891Z,4.29
2022-12-06T03:42:50.014Z,4.25
2022-12-06T03:45:20.011Z,4.24
2022-12-06T03:47:48.521Z,4.24
2022-12-06T03:50:58.362Z,4.22
2022-12-06T03:53:27.568Z,4.21
2022-12-06T03:55:56.435Z,4.19
2022-12-06T03:58:24.916Z,4.17
2022-12-06T04:00:53.822Z,4.15
2022-12-06T04:03:22.800Z,4.13
2022-12-06T04:05:51.446Z,4.10
2022-12-06T04:08:20.392Z,4.07
2022-12-06T04:10:49.043Z,4.07
2022-12-06T04:13:19.756Z,4.06
2022-12-06T04:15:49.064Z,4.03
2022-12-06T04:18:19.605Z,4.00
2022-12-06T04:21:17.648Z,3.99
2022-12-06T04:23:48.987Z,4.00
2022-12-06T04:26:20.180Z,3.99
2022-12-06T04:29:07.717Z,3.97
2022-12-06T04:31:54.881Z,3.93
2022-12-06T04:34:42.543Z,3.88
2022-12-06T04:37:29.773Z,3.87
2022-12-06T04:39:58.276Z,3.86
2022-12-06T04:42:45.212Z,3.84
2022-12-06T04:45:13.667Z,3.82
2022-12-06T04:47:41.867Z,3.80
2022-12-06T04:50:10.718Z,3.78
2022-12-06T04:52:39.321Z,3.78
2022-12-06T04:55:08.136Z,3.78
2022-12-06T04:57:36.829Z,3.79
2022-12-06T05:00:05.889Z,3.79
2022-12-06T05:02:34.489Z,3.81
2022-12-06T05:05:03.031Z,3.81
2022-12-06T05:07:31.961Z,3.79
2022-12-06T05:10:01.162Z,3.78
2022-12-06T05:12:29.819Z,3.74
2022-12-06T05:14:58.615Z,3.68
2022-12-06T05:17:27.212Z,3.65
2022-12-06T05:19:55.888Z,3.64
2022-12-06T05:22:24.806Z,3.64
2022-12-06T05:24:53.598Z,3.61
2022-12-06T05:27:22.207Z,3.56
2022-12-06T05:29:50.814Z,3.55
2022-12-06T05:32:19.439Z,3.56
2022-12-06T05:34:47.990Z,3.57
2022-12-06T05:37:16.698Z,3.56
2022-12-06T05:39:45.455Z,3.54
2022-12-06T05:42:22.148Z,3.53
2022-12-06T05:44:51.732Z,3.54
2022-12-06T05:47:20.263Z,3.55
2022-12-06T05:49:49.028Z,3.54
2022-12-06T05:52:18.003Z,3.52
2022-12-06T05:54:46.814Z,3.50
2022-12-06T05:57:15.430Z,3.49
2022-12-06T06:02:26.008Z,3.50
2022-12-06T06:04:54.576Z,3.51
2022-12-06T06:07:23.255Z,3.52
2022-12-06T06:09:51.642Z,3.54
2022-12-06T06:12:20.254Z,3.55
2022-12-06T06:14:48.427Z,3.55
2022-12-06T06:17:17.309Z,3.55
2022-12-06T06:19:51.142Z,3.57
2022-12-06T06:22:21.004Z,3.59
2022-12-06T06:24:49.779Z,3.63
2022-12-06T06:27:18.479Z,3.65
2022-12-06T06:29:46.865Z,3.67
2022-12-06T06:32:15.574Z,3.68
2022-12-06T06:34:44.268Z,3.70
2022-12-06T06:37:13.076Z,3.71
2022-12-06T06:39:41.795Z,3.69
2022-12-06T06:42:10.258Z,3.69
2022-12-06T06:44:38.864Z,3.68
2022-12-06T06:47:07.456Z,3.68
2022-12-06T06:49:35.964Z,3.69
2022-12-06T06:52:05.007Z,3.67
2022-12-06T06:54:33.707Z,3.67
2022-12-06T06:57:03.853Z,3.66
2022-12-06T06:59:32.767Z,3.64
2022-12-06T07:02:01.439Z,3.64
2022-12-06T07:04:29.818Z,3.65
2022-12-06T07:06:59.603Z,3.65
2022-12-06T07:09:28.224Z,3.64
2022-12-06T07:11:56.797Z,3.62
2022-12-06T07:14:25.778Z,3.62
2022-12-06T07:16:54.726Z,3.60
2022-12-06T07:19:23.330Z,3.60
2022-12-06T07:21:52.154Z,3.59
2022-12-06T07:24:20.866Z,3.58
2022-12-06T07:26:49.564Z,3.60
2022-12-06T07:29:18.348Z,3.61
2022-12-06T07:31:47.157Z,3.63
2022-12-06T07:34:15.729Z,3.64
2022-12-06T07:36:44.148Z,3.65
2022-12-06T07:39:14.930Z,3.65
2022-12-06T07:42:06.534Z,3.66
2022-12-06T07:44:58.369Z,3.65
2022-12-06T07:47:38.452Z,3.65
2022-12-06T07:50:15.984Z,3.64
2022-12-06T07:52:47.026Z,3.65
2022-12-06T07:55:16.509Z,3.66
2022-12-06T07:57:45.278Z,3.65
2022-12-06T08:00:17.123Z,3.65
2022-12-06T08:02:46.065Z,3.64
2022-12-06T08:05:15.592Z,3.62
2022-12-06T08:07:44.358Z,3.62
2022-12-06T08:10:13.330Z,3.61
2022-12-06T08:12:42.388Z,3.60
2022-12-06T08:15:14.258Z,3.58
2022-12-06T08:17:43.324Z,3.58
2022-12-06T08:20:13.285Z,3.57
2022-12-06T08:22:42.303Z,3.57
2022-12-06T08:25:11.608Z,3.56
2022-12-06T08:27:40.129Z,3.56
2022-12-06T08:30:10.215Z,3.56
2022-12-06T08:32:38.997Z,3.57
2022-12-06T08:35:07.760Z,3.56
2022-12-06T08:37:36.296Z,3.55
2022-12-06T08:40:05.550Z,3.54
2022-12-06T08:42:34.353Z,3.53
2022-12-06T08:45:03.398Z,3.54
2022-12-06T08:47:32.093Z,3.55
2022-12-06T08:50:01.246Z,3.57
2022-12-06T08:52:30.028Z,3.60
2022-12-06T08:54:58.621Z,3.64
2022-12-06T08:57:27.203Z,3.70
2022-12-06T08:59:56.579Z,3.73
2022-12-06T09:02:25.464Z,3.75
2022-12-06T09:04:54.241Z,3.76
2022-12-06T09:07:47.870Z,3.78
2022-12-06T09:10:16.671Z,3.81
2022-12-06T09:12:45.389Z,3.83
2022-12-06T09:15:14.053Z,3.87
2022-12-06T09:17:42.611Z,3.87
2022-12-06T09:20:12.158Z,3.86
2022-12-06T09:22:41.453Z,3.85
2022-12-06T09:25:10.200Z,3.84
2022-12-06T09:27:39.766Z,3.82
2022-12-06T09:30:09.122Z,3.80
2022-12-06T09:32:38.070Z,3.78
2022-12-06T09:35:09.699Z,3.76
2022-12-06T09:37:43.141Z,3.75
2022-12-06T09:40:29.075Z,3.74
2022-12-06T09:43:15.925Z,3.72
2022-12-06T09:46:09.739Z,3.71
2022-12-06T09:49:07.698Z,3.71
2022-12-06T09:51:55.415Z,3.72
2022-12-06T09:54:45.048Z,3.72
2022-12-06T09:57:40.954Z,3.69
2022-12-06T10:00:22.889Z,3.65
2022-12-06T10:03:03.890Z,3.64
2022-12-06T10:05:32.913Z,3.63
2022-12-06T10:08:16.000Z,3.64
2022-12-06T10:11:14.683Z,3.65
2022-12-06T10:14:05.277Z,3.65
2022-12-06T10:16:43.925Z,3.65
2022-12-06T10:19:46.312Z,3.65
2022-12-06T10:22:45.362Z,3.66
2022-12-06T10:25:17.298Z,3.65
2022-12-06T10:28:02.382Z,3.65
2022-12-06T10:30:31.682Z,3.66
2022-12-06T10:33:21.818Z,3.66
2022-12-06T10:36:00.522Z,3.68
2022-12-06T10:38:55.940Z,3.70
2022-12-06T10:41:38.243Z,3.72
2022-12-06T10:44:17.121Z,3.72
2022-12-06T10:47:26.411Z,3.73
2022-12-06T10:50:04.687Z,3.73
2022-12-06T10:53:10.358Z,3.73
2022-12-06T10:56:02.294Z,3.74
2022-12-06T10:59:05.758Z,3.76
2022-12-06T11:01:40.049Z,3.79
2022-12-06T11:04:18.019Z,3.79
2022-12-06T11:06:54.745Z,3.78
2022-12-06T11:09:50.660Z,3.79
2022-12-06T11:12:33.380Z,3.80
2022-12-06T11:15:27.914Z,3.81
2022-12-06T11:18:12.578Z,3.81
2022-12-06T11:20:57.713Z,3.81
2022-12-06T11:23:55.742Z,3.80
2022-12-06T11:26:24.386Z,3.80
2022-12-06T11:29:07.456Z,3.79
2022-12-06T11:31:45.295Z,3.78
2022-12-06T11:34:25.794Z,3.78
2022-12-06T11:37:00.180Z,3.77
2022-12-06T11:39:30.774Z,3.76
2022-12-06T11:42:03.326Z,3.76
2022-12-06T11:44:49.953Z,3.77
2022-12-06T11:47:22.992Z,3.77
2022-12-06T11:49:55.632Z,3.76
2022-12-06T11:52:29.913Z,3.77
2022-12-06T11:55:17.009Z,3.77
2022-12-06T11:58:05.001Z,3.76
2022-12-06T12:00:34.825Z,3.74
2022-12-06T12:03:03.300Z,3.74
2022-12-06T12:05:39.574Z,3.74
2022-12-06T12:08:18.373Z,3.73
2022-12-06T12:10:59.260Z,3.73
2022-12-06T12:13:49.369Z,3.74
2022-12-06T12:16:45.052Z,3.75
2022-12-06T12:19:34.966Z,3.77
2022-12-06T12:22:18.463Z,3.79
2022-12-06T12:27:48.888Z,3.79
2022-12-06T12:30:17.261Z,3.78
2022-12-06T12:32:47.771Z,3.78
2022-12-06T12:35:22.426Z,3.78
2022-12-06T12:37:56.556Z,3.78
2022-12-06T12:40:40.880Z,3.78
2022-12-06T12:43:21.614Z,3.78
2022-12-06T12:46:18.794Z,3.80
2022-12-06T12:48:49.093Z,3.82
2022-12-06T12:51:30.320Z,3.85
2022-12-06T12:54:26.234Z,3.88
2022-12-06T12:56:55.715Z,3.89
2022-12-06T12:59:27.742Z,3.89
2022-12-06T13:02:02.515Z,3.88
2022-12-06T13:04:59.808Z,3.87
2022-12-06T13:07:42.425Z,3.88
2022-12-06T13:10:27.864Z,3.88
2022-12-06T13:13:01.956Z,3.88
2022-12-06T13:15:36.281Z,3.88
2022-12-06T13:18:23.384Z,3.87
2022-12-06T13:20:53.860Z,3.87
2022-12-06T13:23:30.366Z,3.86
2022-12-06T13:26:03.837Z,3.85
2022-12-06T13:28:37.536Z,3.83
2022-12-06T13:31:12.951Z,3.80
2022-12-06T13:33:52.432Z,3.80
2022-12-06T13:36:22.994Z,3.77
2022-12-06T13:38:51.709Z,3.76
2022-12-06T13:42:00.285Z,3.75
2022-12-06T13:44:52.744Z,3.71
2022-12-06T13:47:50.345Z,3.68
2022-12-06T13:50:21.791Z,3.65
2022-12-06T13:52:50.350Z,3.63
2022-12-06T13:55:29.349Z,3.62
2022-12-06T14:01:40.061Z,3.60
2022-12-06T14:12:42.783Z,3.56
2022-12-06T14:15:19.975Z,3.56
2022-12-06T14:18:11.088Z,3.57
2022-12-06T14:20:37.338Z,3.57
2022-12-06T14:23:22.922Z,3.57
2022-12-06T14:25:51.643Z,3.55
2022-12-06T14:28:20.164Z,3.55
2022-12-06T14:30:49.137Z,3.55
2022-12-06T14:33:24.670Z,3.56
2022-12-06T14:35:55.181Z,3.57
2022-12-06T14:38:25.584Z,3.59
2022-12-06T14:41:13.167Z,3.61
2022-12-06T14:43:43.949Z,3.64
2022-12-06T14:46:15.916Z,3.65
2022-12-06T14:49:04.616Z,3.65
2022-12-06T14:51:39.495Z,3.66
2022-12-06T14:54:36.991Z,3.67
2022-12-06T14:57:05.805Z,3.69
2022-12-06T15:00:12.893Z,3.70
2022-12-06T15:02:28.690Z,3.71
2022-12-06T15:04:57.619Z,3.71
2022-12-06T15:07:44.871Z,3.72
2022-12-06T15:10:19.302Z,3.71
2022-12-06T15:12:56.922Z,3.70
2022-12-06T15:15:39.662Z,3.70
2022-12-06T15:18:35.988Z,3.71
2022-12-06T15:21:04.075Z,3.71
2022-12-06T15:23:41.895Z,3.71
2022-12-06T15:26:13.972Z,3.73
2022-12-06T15:28:42.648Z,3.75
2022-12-06T15:31:23.817Z,3.78
2022-12-06T15:33:52.202Z,3.84
2022-12-06T15:36:27.048Z,3.89
2022-12-06T15:38:55.563Z,3.92
2022-12-06T15:41:27.419Z,3.95
2022-12-06T15:43:58.384Z,3.97
2022-12-06T15:46:29.560Z,3.99
2022-12-06T15:48:58.597Z,4.02
2022-12-06T15:51:28.301Z,4.03
2022-12-06T15:53:59.171Z,4.04
2022-12-06T15:56:31.253Z,4.04
2022-12-06T15:58:59.885Z,4.05
2022-12-06T16:01:33.799Z,4.07
2022-12-06T16:04:02.675Z,4.09
2022-12-06T16:06:31.770Z,4.10
2022-12-06T16:09:00.288Z,4.11
2022-12-06T16:11:28.633Z,4.13
2022-12-06T16:13:57.070Z,4.14
2022-12-06T16:16:25.731Z,4.15
2022-12-06T16:18:56.064Z,4.17
2022-12-06T16:21:38.333Z,4.19
2022-12-06T16:24:15.011Z,4.20
2022-12-06T16:26:45.888Z,4.21
2022-12-06T16:29:21.556Z,4.22
2022-12-06T16:31:50.403Z,4.24
2022-12-06T16:34:19.251Z,4.27
2022-12-06T16:37:02.961Z,4.29
2022-12-06T16:39:34.396Z,4.30
2022-12-06T16:42:04.747Z,4.32
2022-12-06T16:44:33.548Z,4.35
2022-12-06T16:47:02.173Z,4.37
2022-12-06T16:49:49.311Z,4.39
2022-12-06T16:52:18.709Z,4.41
2022-12-06T16:54:47.438Z,4.43
2022-12-06T16:57:16.334Z,4.47
2022-12-06T16:59:44.867Z,4.50
2022-12-06T17:02:34.156Z,4.53
2022-12-06T17:05:07.073Z,4.57
2022-12-06T17:07:37.056Z,4.61
2022-12-06T17:10:06.034Z,4.64
2022-12-06T17:12:34.874Z,4.70
2022-12-06T17:15:03.986Z,4.73
2022-12-06T17:17:32.927Z,4.76
2022-12-06T17:20:01.444Z,4.79
2022-12-06T17:22:30.001Z,4.82
2022-12-06T17:24:58.573Z,4.85
2022-12-06T17:27:27.484Z,4.89
2022-12-06T17:29:56.276Z,4.92
2022-12-06T17:32:25.262Z,4.96
2022-12-06T17:34:53.934Z,5.00
2022-12-06T17:37:22.733Z,5.03
2022-12-06T17:39:51.020Z,5.07
2022-12-06T17:42:38.116Z,5.08
2022-12-06T17:45:07.426Z,5.11
2022-12-06T17:47:35.799Z,5.13
2022-12-06T17:50:05.611Z,5.15
2022-12-06T17:52:34.648Z,5.17
2022-12-06T17:55:03.476Z,5.19
2022-12-06T17:57:32.307Z,5.20
2022-12-06T18:00:01.449Z,5.21
2022-12-06T18:02:29.878Z,5.23
2022-12-06T18:04:59.057Z,5.26
2022-12-06T18:07:28.108Z,5.27
2022-12-06T18:09:56.355Z,5.28
2022-12-06T18:12:25.816Z,5.28
2022-12-06T18:14:55.031Z,5.29
2022-12-06T18:17:23.616Z,5.30
2022-12-06T18:19:52.080Z,5.32
2022-12-06T18:22:21.366Z,5.32
2022-12-06T18:24:50.015Z,5.31
2022-12-06T18:27:19.930Z,5.31
2022-12-06T18:29:48.609Z,5.30
2022-12-06T18:32:17.552Z,5.30
2022-12-06T18:34:46.253Z,5.29
2022-12-06T18:37:14.769Z,5.28
2022-12-06T18:39:46.254Z,5.28
2022-12-06T18:42:14.979Z,5.27
2022-12-06T18:44:43.782Z,5.27
2022-12-06T18:47:12.501Z,5.27
2022-12-06T18:49:41.207Z,5.27
2022-12-06T18:52:09.787Z,5.27
2022-12-06T18:54:38.504Z,5.27
2022-12-06T18:57:08.242Z,5.27
2022-12-06T18:59:38.564Z,5.28
2022-12-06T19:02:07.271Z,5.28
2022-12-06T19:04:35.923Z,5.27
2022-12-06T19:07:04.664Z,5.27
2022-12-06T19:09:33.729Z,5.27
2022-12-06T19:12:03.899Z,5.29
2022-12-06T19:14:32.696Z,5.31
2022-12-06T19:17:01.478Z,5.32
2022-12-06T19:19:30.732Z,5.33
2022-12-06T19:21:59.483Z,5.34
2022-12-06T19:24:29.943Z,5.36
2022-12-06T19:27:01.964Z,5.38
2022-12-06T19:29:30.800Z,5.40
2022-12-06T19:31:59.336Z,5.41
2022-12-06T19:34:28.730Z,5.43
2022-12-06T19:36:58.646Z,5.44
2022-12-06T19:39:27.779Z,5.45
2022-12-06T19:42:14.692Z,5.48
2022-12-06T19:44:43.603Z,5.49
2022-12-06T19:47:12.493Z,5.51
2022-12-06T19:49:41.702Z,5.52
2022-12-06T19:52:10.731Z,5.53
2022-12-06T19:54:39.390Z,5.55
2022-12-06T19:57:07.519Z,5.58
2022-12-06T19:59:37.994Z,5.61
2022-12-06T20:02:07.361Z,5.64
2022-12-06T20:04:41.626Z,5.67
2022-12-06T20:07:10.990Z,5.71
2022-12-06T20:09:40.310Z,5.75
2022-12-06T20:12:08.840Z,5.78
2022-12-06T20:14:39.410Z,5.80
2022-12-06T20:17:12.829Z,5.83
2022-12-06T20:19:44.118Z,5.86
2022-12-06T20:22:13.290Z,5.89
2022-12-06T20:24:41.763Z,5.92
2022-12-06T20:27:10.569Z,5.94
2022-12-06T20:29:39.225Z,5.97
2022-12-06T20:32:07.908Z,6.00
2022-12-06T20:34:36.390Z,6.02
2022-12-06T20:37:06.793Z,6.04
2022-12-06T20:39:36.499Z,6.07
2022-12-06T20:42:07.653Z,6.10
2022-12-06T20:44:36.765Z,6.12
2022-12-06T20:47:05.619Z,6.13
2022-12-06T20:49:34.143Z,6.15
2022-12-06T20:52:03.769Z,6.17
2022-12-06T20:54:32.302Z,6.18
2022-12-06T20:57:01.157Z,6.19
2022-12-06T20:59:30.215Z,6.20
2022-12-06T21:01:59.117Z,6.23
2022-12-06T21:04:28.417Z,6.28
2022-12-06T21:06:57.279Z,6.30
2022-12-06T21:09:26.098Z,6.33
2022-12-06T21:11:54.594Z,6.36
2022-12-06T21:14:23.255Z,6.39
2022-12-06T21:16:51.786Z,6.43
2022-12-06T21:19:21.694Z,6.47
2022-12-06T21:21:54.735Z,6.52
2022-12-06T21:24:23.639Z,6.55
2022-12-06T21:26:51.953Z,6.58
2022-12-06T21:29:30.597Z,6.62
2022-12-06T21:32:02.426Z,6.65
2022-12-06T21:34:30.988Z,6.68
2022-12-06T21:36:59.791Z,6.71
2022-12-06T21:39:28.407Z,6.74
2022-12-06T21:41:57.149Z,6.77
2022-12-06T21:44:25.855Z,6.78
2022-12-06T21:46:55.244Z,6.81
2022-12-06T21:49:23.946Z,6.83
2022-12-06T21:52:00.236Z,6.84
2022-12-06T21:54:30.738Z,6.87
2022-12-06T21:56:59.340Z,6.92
2022-12-06T21:59:28.012Z,6.96
2022-12-06T22:01:57.141Z,6.99
2022-12-06T22:04:25.698Z,7.01
2022-12-06T22:06:53.982Z,7.04
2022-12-06T22:09:22.297Z,7.08
2022-12-06T22:11:50.633Z,7.12
2022-12-06T22:14:18.800Z,7.17
2022-12-06T22:16:47.166Z,7.22
2022-12-06T22:19:15.822Z,7.26
2022-12-06T22:21:44.498Z,7.32
2022-12-06T22:24:13.256Z,7.37
2022-12-06T22:26:41.997Z,7.37
2022-12-06T22:29:10.937Z,7.38
2022-12-06T22:31:39.742Z,7.38
2022-12-06T22:34:08.543Z,7.38
2022-12-06T22:36:37.312Z,7.36
2022-12-06T22:39:07.030Z,7.35
2022-12-06T22:41:35.678Z,7.35
2022-12-06T22:44:07.032Z,7.33
2022-12-06T22:46:37.692Z,7.29
2022-12-06T22:49:07.486Z,7.26
2022-12-06T22:51:38.939Z,7.23
2022-12-06T22:54:12.111Z,7.20
2022-12-06T22:56:48.056Z,7.18
2022-12-06T22:59:18.093Z,7.16
2022-12-06T23:01:46.785Z,7.15
2022-12-06T23:04:15.359Z,7.13
2022-12-06T23:06:44.111Z,7.12
2022-12-06T23:09:17.163Z,7.10
2022-12-06T23:11:45.722Z,7.08
2022-12-06T23:14:14.728Z,7.06
2022-12-06T23:16:44.563Z,7.03
2022-12-06T23:19:13.286Z,7.01
2022-12-06T23:21:43.319Z,7.00
2022-12-06T23:24:13.787Z,6.97
2022-12-06T23:26:45.653Z,6.94
2022-12-06T23:29:15.633Z,6.91
2022-12-06T23:31:46.048Z,6.87
2022-12-06T23:34:27.584Z,6.83
2022-12-06T23:36:55.891Z,6.80
2022-12-06T23:39:24.823Z,6.78
2022-12-06T23:41:53.711Z,6.76
2022-12-06T23:44:22.436Z,6.75
2022-12-06T23:46:51.180Z,6.71
2022-12-06T23:49:22.007Z,6.67
2022-12-06T23:51:51.053Z,6.65
2022-12-06T23:54:20.092Z,6.60
2022-12-06T23:56:48.954Z,6.57
2022-12-06T23:59:18.150Z,6.54
